sensor_id;sensor_type;location;lat;lon;timestamp;temperature;humidity
52203;DHT22;38173;52.850;6.970;2023-06-10T00:00:18;17.50;99.70
52203;DHT22;38173;52.850;6.970;2023-06-10T00:02:48;17.50;98.60
52203;DHT22;38173;52.850;6.970;2023-06-10T00:05:14;17.50;99.90
52203;DHT22;38173;52.850;6.970;2023-06-10T00:07:44;17.50;99.90
52203;DHT22;38173;52.850;6.970;2023-06-10T00:10:25;17.60;99.90
52203;DHT22;38173;52.850;6.970;2023-06-10T00:12:52;17.50;99.90
52203;DHT22;38173;52.850;6.970;2023-06-10T00:15:18;17.50;99.90
52203;DHT22;38173;52.850;6.970;2023-06-10T00:17:48;17.50;99.90
52203;DHT22;38173;52.850;6.970;2023-06-10T00:20:19;17.50;99.90
52203;DHT22;38173;52.850;6.970;2023-06-10T00:22:55;17.50;99.90
52203;DHT22;38173;52.850;6.970;2023-06-10T00:25:23;17.50;99.90
52203;DHT22;38173;52.850;6.970;2023-06-10T00:27:52;17.50;99.90
52203;DHT22;38173;52.850;6.970;2023-06-10T00:30:25;17.50;99.90
52203;DHT22;38173;52.850;6.970;2023-06-10T00:32:57;17.40;99.90
52203;DHT22;38173;52.850;6.970;2023-06-10T00:35:29;17.40;99.90
52203;DHT22;38173;52.850;6.970;2023-06-10T00:37:55;17.30;99.90
52203;DHT22;38173;52.850;6.970;2023-06-10T00:40:28;17.10;99.90
52203;DHT22;38173;52.850;6.970;2023-06-10T00:43:00;16.80;99.90
52203;DHT22;38173;52.850;6.970;2023-06-10T00:45:27;16.50;99.90
52203;DHT22;38173;52.850;6.970;2023-06-10T00:47:56;16.30;99.90
52203;DHT22;38173;52.850;6.970;2023-06-10T00:50:33;16.10;99.90
52203;DHT22;38173;52.850;6.970;2023-06-10T00:53:00;15.80;99.90
52203;DHT22;38173;52.850;6.970;2023-06-10T00:55:27;15.60;99.90
52203;DHT22;38173;52.850;6.970;2023-06-10T00:57:53;15.50;99.90
52203;DHT22;38173;52.850;6.970;2023-06-10T01:00:24;15.30;99.90
52203;DHT22;38173;52.850;6.970;2023-06-10T01:02:51;15.10;99.90
52203;DHT22;38173;52.850;6.970;2023-06-10T01:05:19;15.10;99.90
52203;DHT22;38173;52.850;6.970;2023-06-10T01:08:09;15.00;99.90
52203;DHT22;38173;52.850;6.970;2023-06-10T01:10:57;14.90;99.90
52203;DHT22;38173;52.850;6.970;2023-06-10T01:13:29;14.80;99.90
52203;DHT22;38173;52.850;6.970;2023-06-10T01:16:00;14.70;99.90
52203;DHT22;38173;52.850;6.970;2023-06-10T01:18:32;14.70;99.90
52203;DHT22;38173;52.850;6.970;2023-06-10T01:21:01;14.70;99.90
52203;DHT22;38173;52.850;6.970;2023-06-10T01:23:28;14.60;99.90
52203;DHT22;38173;52.850;6.970;2023-06-10T01:26:01;14.50;99.90
52203;DHT22;38173;52.850;6.970;2023-06-10T01:31:41;14.30;99.90
52203;DHT22;38173;52.850;6.970;2023-06-10T01:34:13;14.20;99.90
52203;DHT22;38173;52.850;6.970;2023-06-10T01:36:41;14.10;99.90
52203;DHT22;38173;52.850;6.970;2023-06-10T01:39:09;14.10;99.90
52203;DHT22;38173;52.850;6.970;2023-06-10T01:41:37;14.00;99.90
52203;DHT22;38173;52.850;6.970;2023-06-10T01:44:19;14.00;99.90
52203;DHT22;38173;52.850;6.970;2023-06-10T01:46:49;14.00;99.90
52203;DHT22;38173;52.850;6.970;2023-06-10T01:49:15;14.10;99.90
52203;DHT22;38173;52.850;6.970;2023-06-10T01:51:41;14.10;99.90
52203;DHT22;38173;52.850;6.970;2023-06-10T01:54:08;14.10;99.90
52203;DHT22;38173;52.850;6.970;2023-06-10T01:56:37;14.20;99.90
52203;DHT22;38173;52.850;6.970;2023-06-10T01:59:03;14.20;99.90
52203;DHT22;38173;52.850;6.970;2023-06-10T02:01:29;14.30;99.90
52203;DHT22;38173;52.850;6.970;2023-06-10T02:03:56;14.40;99.90
52203;DHT22;38173;52.850;6.970;2023-06-10T02:06:32;14.40;99.90
52203;DHT22;38173;52.850;6.970;2023-06-10T02:09:07;14.20;99.90
52203;DHT22;38173;52.850;6.970;2023-06-10T02:11:33;14.00;99.90
52203;DHT22;38173;52.850;6.970;2023-06-10T02:14:01;13.90;99.90
52203;DHT22;38173;52.850;6.970;2023-06-10T02:16:28;13.70;99.90
52203;DHT22;38173;52.850;6.970;2023-06-10T02:18:54;13.60;99.90
52203;DHT22;38173;52.850;6.970;2023-06-10T02:21:20;13.50;99.90
52203;DHT22;38173;52.850;6.970;2023-06-10T02:23:56;13.40;99.90
52203;DHT22;38173;52.850;6.970;2023-06-10T02:26:25;13.30;99.90
52203;DHT22;38173;52.850;6.970;2023-06-10T02:28:51;13.30;99.90
52203;DHT22;38173;52.850;6.970;2023-06-10T02:31:17;13.30;99.90
52203;DHT22;38173;52.850;6.970;2023-06-10T02:33:44;13.30;99.90
52203;DHT22;38173;52.850;6.970;2023-06-10T02:36:10;13.40;99.90
52203;DHT22;38173;52.850;6.970;2023-06-10T02:38:40;13.40;99.90
52203;DHT22;38173;52.850;6.970;2023-06-10T02:41:12;13.50;99.90
52203;DHT22;38173;52.850;6.970;2023-06-10T02:43:41;13.50;99.90
52203;DHT22;38173;52.850;6.970;2023-06-10T02:46:08;13.60;99.90
52203;DHT22;38173;52.850;6.970;2023-06-10T02:48:46;13.60;99.90
52203;DHT22;38173;52.850;6.970;2023-06-10T02:51:15;13.70;99.90
52203;DHT22;38173;52.850;6.970;2023-06-10T02:53:47;13.80;99.90
52203;DHT22;38173;52.850;6.970;2023-06-10T02:56:26;13.80;99.90
52203;DHT22;38173;52.850;6.970;2023-06-10T02:59:15;13.90;99.90
52203;DHT22;38173;52.850;6.970;2023-06-10T03:01:42;13.90;99.90
52203;DHT22;38173;52.850;6.970;2023-06-10T03:04:17;13.90;99.90
52203;DHT22;38173;52.850;6.970;2023-06-10T03:06:44;14.00;99.90
52203;DHT22;38173;52.850;6.970;2023-06-10T03:09:11;14.00;99.90
52203;DHT22;38173;52.850;6.970;2023-06-10T03:11:38;14.00;99.90
52203;DHT22;38173;52.850;6.970;2023-06-10T03:14:04;14.10;99.90
52203;DHT22;38173;52.850;6.970;2023-06-10T03:16:36;14.00;99.90
52203;DHT22;38173;52.850;6.970;2023-06-10T03:19:06;14.00;99.90
52203;DHT22;38173;52.850;6.970;2023-06-10T03:21:34;14.00;99.90
52203;DHT22;38173;52.850;6.970;2023-06-10T03:24:01;13.90;99.90
52203;DHT22;38173;52.850;6.970;2023-06-10T03:26:32;13.90;99.90
52203;DHT22;38173;52.850;6.970;2023-06-10T03:28:58;13.90;99.90
52203;DHT22;38173;52.850;6.970;2023-06-10T03:31:32;13.90;99.90
52203;DHT22;38173;52.850;6.970;2023-06-10T03:34:01;13.90;99.90
52203;DHT22;38173;52.850;6.970;2023-06-10T03:36:27;13.90;99.90
52203;DHT22;38173;52.850;6.970;2023-06-10T03:38:57;13.90;99.90
52203;DHT22;38173;52.850;6.970;2023-06-10T03:41:24;14.00;99.90
52203;DHT22;38173;52.850;6.970;2023-06-10T03:43:51;14.00;99.90
52203;DHT22;38173;52.850;6.970;2023-06-10T03:46:28;14.10;99.90
52203;DHT22;38173;52.850;6.970;2023-06-10T03:48:54;14.10;99.90
52203;DHT22;38173;52.850;6.970;2023-06-10T03:51:21;14.10;99.90
52203;DHT22;38173;52.850;6.970;2023-06-10T03:53:51;14.10;99.90
52203;DHT22;38173;52.850;6.970;2023-06-10T03:56:20;14.10;99.90
52203;DHT22;38173;52.850;6.970;2023-06-10T03:58:59;14.20;99.90
52203;DHT22;38173;52.850;6.970;2023-06-10T04:01:32;14.20;99.90
52203;DHT22;38173;52.850;6.970;2023-06-10T04:03:59;14.20;99.90
52203;DHT22;38173;52.850;6.970;2023-06-10T04:06:27;14.20;99.90
52203;DHT22;38173;52.850;6.970;2023-06-10T04:08:55;14.30;99.90
52203;DHT22;38173;52.850;6.970;2023-06-10T04:11:26;14.30;99.90
52203;DHT22;38173;52.850;6.970;2023-06-10T04:13:53;14.30;99.90
52203;DHT22;38173;52.850;6.970;2023-06-10T04:16:22;14.30;99.90
52203;DHT22;38173;52.850;6.970;2023-06-10T04:18:48;14.30;99.90
52203;DHT22;38173;52.850;6.970;2023-06-10T04:21:17;14.40;99.90
52203;DHT22;38173;52.850;6.970;2023-06-10T04:23:43;14.30;99.90
52203;DHT22;38173;52.850;6.970;2023-06-10T04:26:20;14.40;99.90
52203;DHT22;38173;52.850;6.970;2023-06-10T04:28:46;14.40;99.90
52203;DHT22;38173;52.850;6.970;2023-06-10T04:31:15;14.40;99.90
52203;DHT22;38173;52.850;6.970;2023-06-10T04:33:41;14.40;99.90
52203;DHT22;38173;52.850;6.970;2023-06-10T04:36:07;14.50;99.90
52203;DHT22;38173;52.850;6.970;2023-06-10T04:38:37;14.50;99.90
52203;DHT22;38173;52.850;6.970;2023-06-10T04:41:03;14.50;99.90
52203;DHT22;38173;52.850;6.970;2023-06-10T04:43:35;14.50;99.90
52203;DHT22;38173;52.850;6.970;2023-06-10T04:46:05;14.60;99.90
52203;DHT22;38173;52.850;6.970;2023-06-10T04:48:35;14.70;99.90
52203;DHT22;38173;52.850;6.970;2023-06-10T04:51:07;14.70;99.90
52203;DHT22;38173;52.850;6.970;2023-06-10T04:53:36;14.70;99.90
52203;DHT22;38173;52.850;6.970;2023-06-10T04:56:03;14.80;99.90
52203;DHT22;38173;52.850;6.970;2023-06-10T04:58:35;14.90;99.90
52203;DHT22;38173;52.850;6.970;2023-06-10T05:01:01;14.90;99.90
52203;DHT22;38173;52.850;6.970;2023-06-10T05:03:31;15.00;99.90
52203;DHT22;38173;52.850;6.970;2023-06-10T05:05:57;15.10;99.90
52203;DHT22;38173;52.850;6.970;2023-06-10T05:08:24;15.20;99.90
52203;DHT22;38173;52.850;6.970;2023-06-10T05:10:53;15.30;99.90
52203;DHT22;38173;52.850;6.970;2023-06-10T05:13:22;15.30;99.90
52203;DHT22;38173;52.850;6.970;2023-06-10T05:15:48;15.40;99.90
52203;DHT22;38173;52.850;6.970;2023-06-10T05:18:14;15.50;99.90
52203;DHT22;38173;52.850;6.970;2023-06-10T05:20:40;15.50;99.90
52203;DHT22;38173;52.850;6.970;2023-06-10T05:23:06;15.60;99.90
52203;DHT22;38173;52.850;6.970;2023-06-10T05:25:32;15.70;99.90
52203;DHT22;38173;52.850;6.970;2023-06-10T05:27:59;15.70;99.90
52203;DHT22;38173;52.850;6.970;2023-06-10T05:30:25;15.80;99.90
52203;DHT22;38173;52.850;6.970;2023-06-10T05:32:52;15.80;99.90
52203;DHT22;38173;52.850;6.970;2023-06-10T05:35:18;15.90;99.90
52203;DHT22;38173;52.850;6.970;2023-06-10T05:37:45;16.00;99.90
52203;DHT22;38173;52.850;6.970;2023-06-10T05:40:11;16.00;99.90
52203;DHT22;38173;52.850;6.970;2023-06-10T05:42:40;16.10;99.90
52203;DHT22;38173;52.850;6.970;2023-06-10T05:45:06;16.30;99.90
52203;DHT22;38173;52.850;6.970;2023-06-10T05:47:32;16.30;99.90
52203;DHT22;38173;52.850;6.970;2023-06-10T05:49:58;16.50;99.90
52203;DHT22;38173;52.850;6.970;2023-06-10T05:52:24;16.60;99.90
52203;DHT22;38173;52.850;6.970;2023-06-10T05:54:50;16.60;99.90
52203;DHT22;38173;52.850;6.970;2023-06-10T05:57:16;16.60;99.90
52203;DHT22;38173;52.850;6.970;2023-06-10T05:59:46;16.60;99.90
52203;DHT22;38173;52.850;6.970;2023-06-10T06:02:12;16.70;99.90
52203;DHT22;38173;52.850;6.970;2023-06-10T06:04:38;16.80;99.90
52203;DHT22;38173;52.850;6.970;2023-06-10T06:07:04;16.80;99.90
52203;DHT22;38173;52.850;6.970;2023-06-10T06:09:31;16.90;99.90
52203;DHT22;38173;52.850;6.970;2023-06-10T06:11:57;17.00;99.90
52203;DHT22;38173;52.850;6.970;2023-06-10T06:14:23;17.00;99.90
52203;DHT22;38173;52.850;6.970;2023-06-10T06:16:49;17.20;99.90
52203;DHT22;38173;52.850;6.970;2023-06-10T06:19:14;17.30;99.90
52203;DHT22;38173;52.850;6.970;2023-06-10T06:21:41;17.30;99.90
52203;DHT22;38173;52.850;6.970;2023-06-10T06:24:07;17.30;99.90
52203;DHT22;38173;52.850;6.970;2023-06-10T06:26:33;17.40;99.90
52203;DHT22;38173;52.850;6.970;2023-06-10T06:28:59;17.50;99.90
52203;DHT22;38173;52.850;6.970;2023-06-10T06:31:26;17.60;99.90
52203;DHT22;38173;52.850;6.970;2023-06-10T06:33:52;17.70;99.90
52203;DHT22;38173;52.850;6.970;2023-06-10T06:36:18;17.70;99.90
52203;DHT22;38173;52.850;6.970;2023-06-10T06:38:44;17.80;99.90
52203;DHT22;38173;52.850;6.970;2023-06-10T06:41:10;17.80;99.90
52203;DHT22;38173;52.850;6.970;2023-06-10T06:43:37;17.90;99.90
52203;DHT22;38173;52.850;6.970;2023-06-10T06:46:03;18.00;99.90
52203;DHT22;38173;52.850;6.970;2023-06-10T06:48:29;18.10;99.90
52203;DHT22;38173;52.850;6.970;2023-06-10T06:50:55;18.10;99.90
52203;DHT22;38173;52.850;6.970;2023-06-10T06:53:22;18.20;99.90
52203;DHT22;38173;52.850;6.970;2023-06-10T06:55:47;18.10;99.90
52203;DHT22;38173;52.850;6.970;2023-06-10T06:58:16;18.20;99.90
52203;DHT22;38173;52.850;6.970;2023-06-10T07:00:41;18.30;99.90
52203;DHT22;38173;52.850;6.970;2023-06-10T07:03:07;18.40;99.90
52203;DHT22;38173;52.850;6.970;2023-06-10T07:05:33;18.40;99.90
52203;DHT22;38173;52.850;6.970;2023-06-10T07:07:59;18.40;99.90
52203;DHT22;38173;52.850;6.970;2023-06-10T07:10:25;18.40;99.90
52203;DHT22;38173;52.850;6.970;2023-06-10T07:12:51;18.40;99.90
52203;DHT22;38173;52.850;6.970;2023-06-10T07:15:17;18.50;99.90
52203;DHT22;38173;52.850;6.970;2023-06-10T07:17:43;18.40;99.90
52203;DHT22;38173;52.850;6.970;2023-06-10T07:20:09;18.50;99.90
52203;DHT22;38173;52.850;6.970;2023-06-10T07:22:35;18.40;99.90
52203;DHT22;38173;52.850;6.970;2023-06-10T07:25:04;18.40;99.90
52203;DHT22;38173;52.850;6.970;2023-06-10T07:27:30;18.40;99.90
52203;DHT22;38173;52.850;6.970;2023-06-10T07:29:56;18.60;99.90
52203;DHT22;38173;52.850;6.970;2023-06-10T07:32:22;18.70;99.90
52203;DHT22;38173;52.850;6.970;2023-06-10T07:34:50;18.70;99.90
52203;DHT22;38173;52.850;6.970;2023-06-10T07:37:16;18.90;99.90
52203;DHT22;38173;52.850;6.970;2023-06-10T07:39:45;19.10;99.90
52203;DHT22;38173;52.850;6.970;2023-06-10T07:42:11;19.10;99.90
52203;DHT22;38173;52.850;6.970;2023-06-10T07:44:37;19.10;99.90
52203;DHT22;38173;52.850;6.970;2023-06-10T07:47:03;19.30;99.90
52203;DHT22;38173;52.850;6.970;2023-06-10T07:49:32;19.40;99.90
52203;DHT22;38173;52.850;6.970;2023-06-10T07:52:01;19.60;99.90
52203;DHT22;38173;52.850;6.970;2023-06-10T07:54:27;19.60;99.90
52203;DHT22;38173;52.850;6.970;2023-06-10T07:56:53;19.80;99.90
52203;DHT22;38173;52.850;6.970;2023-06-10T07:59:19;20.00;99.90
52203;DHT22;38173;52.850;6.970;2023-06-10T08:01:45;20.10;99.90
52203;DHT22;38173;52.850;6.970;2023-06-10T08:04:11;20.20;99.90
52203;DHT22;38173;52.850;6.970;2023-06-10T08:06:37;20.30;99.90
52203;DHT22;38173;52.850;6.970;2023-06-10T08:09:08;20.50;99.90
52203;DHT22;38173;52.850;6.970;2023-06-10T08:11:34;20.60;99.90
52203;DHT22;38173;52.850;6.970;2023-06-10T08:14:00;20.80;99.90
52203;DHT22;38173;52.850;6.970;2023-06-10T08:16:27;20.80;99.90
52203;DHT22;38173;52.850;6.970;2023-06-10T08:18:55;21.00;99.90
52203;DHT22;38173;52.850;6.970;2023-06-10T08:21:21;21.10;99.90
52203;DHT22;38173;52.850;6.970;2023-06-10T08:23:47;21.20;99.90
52203;DHT22;38173;52.850;6.970;2023-06-10T08:26:14;21.10;99.90
52203;DHT22;38173;52.850;6.970;2023-06-10T08:28:40;21.20;99.90
52203;DHT22;38173;52.850;6.970;2023-06-10T08:31:09;21.20;99.90
52203;DHT22;38173;52.850;6.970;2023-06-10T08:33:34;21.40;99.90
52203;DHT22;38173;52.850;6.970;2023-06-10T08:36:00;21.50;99.90
52203;DHT22;38173;52.850;6.970;2023-06-10T08:38:26;21.60;99.90
52203;DHT22;38173;52.850;6.970;2023-06-10T08:40:52;21.70;99.90
52203;DHT22;38173;52.850;6.970;2023-06-10T08:43:33;21.70;99.40
52203;DHT22;38173;52.850;6.970;2023-06-10T08:46:03;21.70;98.50
52203;DHT22;38173;52.850;6.970;2023-06-10T08:48:30;21.80;96.20
52203;DHT22;38173;52.850;6.970;2023-06-10T08:50:57;21.80;95.00
52203;DHT22;38173;52.850;6.970;2023-06-10T08:53:27;21.70;95.40
52203;DHT22;38173;52.850;6.970;2023-06-10T08:55:56;21.90;96.80
52203;DHT22;38173;52.850;6.970;2023-06-10T08:58:24;22.20;95.80
52203;DHT22;38173;52.850;6.970;2023-06-10T09:00:50;22.30;90.70
52203;DHT22;38173;52.850;6.970;2023-06-10T09:03:16;22.30;89.10
52203;DHT22;38173;52.850;6.970;2023-06-10T09:05:43;22.30;89.00
52203;DHT22;38173;52.850;6.970;2023-06-10T09:08:09;22.30;88.50
52203;DHT22;38173;52.850;6.970;2023-06-10T09:10:35;22.40;90.00
52203;DHT22;38173;52.850;6.970;2023-06-10T09:13:01;22.50;90.50
52203;DHT22;38173;52.850;6.970;2023-06-10T09:15:27;22.50;84.10
52203;DHT22;38173;52.850;6.970;2023-06-10T09:17:56;22.60;83.30
52203;DHT22;38173;52.850;6.970;2023-06-10T09:20:22;22.60;83.20
52203;DHT22;38173;52.850;6.970;2023-06-10T09:22:49;22.70;84.10
52203;DHT22;38173;52.850;6.970;2023-06-10T09:25:15;22.90;86.10
52203;DHT22;38173;52.850;6.970;2023-06-10T09:27:52;23.10;86.30
52203;DHT22;38173;52.850;6.970;2023-06-10T09:30:30;23.20;76.80
52203;DHT22;38173;52.850;6.970;2023-06-10T09:33:10;23.20;75.50
52203;DHT22;38173;52.850;6.970;2023-06-10T09:35:48;23.30;76.40
52203;DHT22;38173;52.850;6.970;2023-06-10T09:38:19;23.30;74.00
52203;DHT22;38173;52.850;6.970;2023-06-10T09:40:52;23.40;72.70
52203;DHT22;38173;52.850;6.970;2023-06-10T09:43:19;23.50;72.30
52203;DHT22;38173;52.850;6.970;2023-06-10T09:45:47;23.40;72.20
52203;DHT22;38173;52.850;6.970;2023-06-10T09:48:13;23.40;69.80
52203;DHT22;38173;52.850;6.970;2023-06-10T09:50:42;23.50;67.70
52203;DHT22;38173;52.850;6.970;2023-06-10T09:53:12;23.70;64.60
52203;DHT22;38173;52.850;6.970;2023-06-10T09:55:38;23.70;64.00
52203;DHT22;38173;52.850;6.970;2023-06-10T09:58:04;23.80;65.00
52203;DHT22;38173;52.850;6.970;2023-06-10T10:00:31;23.80;64.10
52203;DHT22;38173;52.850;6.970;2023-06-10T10:02:58;23.90;65.20
52203;DHT22;38173;52.850;6.970;2023-06-10T10:05:24;24.00;59.60
52203;DHT22;38173;52.850;6.970;2023-06-10T10:07:50;24.00;60.30
52203;DHT22;38173;52.850;6.970;2023-06-10T10:10:19;24.10;58.50
52203;DHT22;38173;52.850;6.970;2023-06-10T10:12:46;24.30;60.10
52203;DHT22;38173;52.850;6.970;2023-06-10T10:15:13;24.50;57.30
52203;DHT22;38173;52.850;6.970;2023-06-10T10:20:27;24.80;58.20
52203;DHT22;38173;52.850;6.970;2023-06-10T10:22:56;25.00;55.10
52203;DHT22;38173;52.850;6.970;2023-06-10T10:25:34;25.10;57.70
52203;DHT22;38173;52.850;6.970;2023-06-10T10:30:42;25.30;61.40
52203;DHT22;38173;52.850;6.970;2023-06-10T10:33:24;25.40;63.20
52203;DHT22;38173;52.850;6.970;2023-06-10T10:35:58;25.80;62.30
52203;DHT22;38173;52.850;6.970;2023-06-10T10:38:24;26.00;60.20
52203;DHT22;38173;52.850;6.970;2023-06-10T10:40:51;26.30;57.40
52203;DHT22;38173;52.850;6.970;2023-06-10T10:43:18;26.30;56.90
52203;DHT22;38173;52.850;6.970;2023-06-10T10:46:09;26.30;55.40
52203;DHT22;38173;52.850;6.970;2023-06-10T10:48:38;26.50;54.40
52203;DHT22;38173;52.850;6.970;2023-06-10T10:51:08;26.70;54.50
52203;DHT22;38173;52.850;6.970;2023-06-10T10:53:38;26.90;54.00
52203;DHT22;38173;52.850;6.970;2023-06-10T10:56:20;26.80;54.40
52203;DHT22;38173;52.850;6.970;2023-06-10T10:59:16;26.70;48.80
52203;DHT22;38173;52.850;6.970;2023-06-10T11:01:49;26.60;50.00
52203;DHT22;38173;52.850;6.970;2023-06-10T11:04:20;26.60;51.90
52203;DHT22;38173;52.850;6.970;2023-06-10T11:07:05;26.80;52.70
52203;DHT22;38173;52.850;6.970;2023-06-10T11:09:32;27.00;51.60
52203;DHT22;38173;52.850;6.970;2023-06-10T11:12:08;27.20;53.60
52203;DHT22;38173;52.850;6.970;2023-06-10T11:14:37;27.30;49.80
52203;DHT22;38173;52.850;6.970;2023-06-10T11:17:18;27.40;50.20
52203;DHT22;38173;52.850;6.970;2023-06-10T11:19:46;27.30;50.30
52203;DHT22;38173;52.850;6.970;2023-06-10T11:22:18;27.30;50.30
52203;DHT22;38173;52.850;6.970;2023-06-10T11:24:49;27.20;48.00
52203;DHT22;38173;52.850;6.970;2023-06-10T11:27:24;27.10;48.70
52203;DHT22;38173;52.850;6.970;2023-06-10T11:32:34;26.70;47.80
52203;DHT22;38173;52.850;6.970;2023-06-10T11:35:03;26.60;48.60
52203;DHT22;38173;52.850;6.970;2023-06-10T11:37:30;26.70;49.50
52203;DHT22;38173;52.850;6.970;2023-06-10T11:39:56;26.90;51.70
52203;DHT22;38173;52.850;6.970;2023-06-10T11:42:26;27.10;48.50
52203;DHT22;38173;52.850;6.970;2023-06-10T11:44:53;27.10;46.90
52203;DHT22;38173;52.850;6.970;2023-06-10T11:47:27;27.10;47.90
52203;DHT22;38173;52.850;6.970;2023-06-10T11:49:57;27.10;48.10
52203;DHT22;38173;52.850;6.970;2023-06-10T11:52:37;27.30;49.70
52203;DHT22;38173;52.850;6.970;2023-06-10T11:55:07;27.40;48.40
52203;DHT22;38173;52.850;6.970;2023-06-10T11:57:39;27.50;46.70
52203;DHT22;38173;52.850;6.970;2023-06-10T12:00:06;27.50;48.60
52203;DHT22;38173;52.850;6.970;2023-06-10T12:02:42;27.60;48.40
52203;DHT22;38173;52.850;6.970;2023-06-10T12:05:15;27.70;46.10
52203;DHT22;38173;52.850;6.970;2023-06-10T12:08:11;27.70;46.10
52203;DHT22;38173;52.850;6.970;2023-06-10T12:10:43;28.00;47.00
52203;DHT22;38173;52.850;6.970;2023-06-10T12:13:15;28.30;48.70
52203;DHT22;38173;52.850;6.970;2023-06-10T12:15:41;28.40;48.10
52203;DHT22;38173;52.850;6.970;2023-06-10T12:18:20;28.60;47.70
52203;DHT22;38173;52.850;6.970;2023-06-10T12:20:49;28.90;46.30
52203;DHT22;38173;52.850;6.970;2023-06-10T12:23:18;29.00;46.30
52203;DHT22;38173;52.850;6.970;2023-06-10T12:26:11;29.20;44.80
52203;DHT22;38173;52.850;6.970;2023-06-10T12:28:50;29.40;43.50
52203;DHT22;38173;52.850;6.970;2023-06-10T12:31:17;29.40;44.50
52203;DHT22;38173;52.850;6.970;2023-06-10T12:33:43;29.40;44.10
52203;DHT22;38173;52.850;6.970;2023-06-10T12:36:17;29.60;44.10
52203;DHT22;38173;52.850;6.970;2023-06-10T12:38:43;29.90;43.30
52203;DHT22;38173;52.850;6.970;2023-06-10T12:41:09;30.10;43.00
52203;DHT22;38173;52.850;6.970;2023-06-10T12:43:35;30.30;42.60
52203;DHT22;38173;52.850;6.970;2023-06-10T12:46:09;30.60;42.20
52203;DHT22;38173;52.850;6.970;2023-06-10T12:48:37;30.80;41.00
52203;DHT22;38173;52.850;6.970;2023-06-10T12:51:14;31.00;41.60
52203;DHT22;38173;52.850;6.970;2023-06-10T12:53:43;31.20;41.70
52203;DHT22;38173;52.850;6.970;2023-06-10T12:56:10;31.50;45.20
52203;DHT22;38173;52.850;6.970;2023-06-10T12:58:41;31.80;42.40
52203;DHT22;38173;52.850;6.970;2023-06-10T13:01:07;32.00;41.50
52203;DHT22;38173;52.850;6.970;2023-06-10T13:03:40;32.10;39.80
52203;DHT22;38173;52.850;6.970;2023-06-10T13:06:12;32.40;41.60
52203;DHT22;38173;52.850;6.970;2023-06-10T13:08:41;32.20;41.30
52203;DHT22;38173;52.850;6.970;2023-06-10T13:11:08;32.30;40.70
52203;DHT22;38173;52.850;6.970;2023-06-10T13:13:36;32.30;41.60
52203;DHT22;38173;52.850;6.970;2023-06-10T13:16:12;32.20;39.30
52203;DHT22;38173;52.850;6.970;2023-06-10T13:18:41;32.40;41.60
52203;DHT22;38173;52.850;6.970;2023-06-10T13:21:12;32.50;41.80
52203;DHT22;38173;52.850;6.970;2023-06-10T13:23:43;32.50;42.30
52203;DHT22;38173;52.850;6.970;2023-06-10T13:26:10;32.30;41.50
52203;DHT22;38173;52.850;6.970;2023-06-10T13:28:48;32.10;40.20
52203;DHT22;38173;52.850;6.970;2023-06-10T13:31:17;32.20;40.60
52203;DHT22;38173;52.850;6.970;2023-06-10T13:33:47;32.30;41.00
52203;DHT22;38173;52.850;6.970;2023-06-10T13:36:18;32.50;41.50
52203;DHT22;38173;52.850;6.970;2023-06-10T13:38:46;32.40;40.80
52203;DHT22;38173;52.850;6.970;2023-06-10T13:41:13;32.80;40.00
52203;DHT22;38173;52.850;6.970;2023-06-10T13:43:46;33.10;39.50
52203;DHT22;38173;52.850;6.970;2023-06-10T13:46:12;33.10;37.20
52203;DHT22;38173;52.850;6.970;2023-06-10T13:48:39;33.40;40.80
52203;DHT22;38173;52.850;6.970;2023-06-10T13:51:05;33.80;40.10
52203;DHT22;38173;52.850;6.970;2023-06-10T13:53:32;34.00;36.50
52203;DHT22;38173;52.850;6.970;2023-06-10T13:56:03;34.10;38.90
52203;DHT22;38173;52.850;6.970;2023-06-10T13:58:30;34.30;35.90
52203;DHT22;38173;52.850;6.970;2023-06-10T14:00:59;34.20;35.70
52203;DHT22;38173;52.850;6.970;2023-06-10T14:03:27;34.60;38.70
52203;DHT22;38173;52.850;6.970;2023-06-10T14:05:56;34.50;36.00
52203;DHT22;38173;52.850;6.970;2023-06-10T14:08:23;34.90;42.70
52203;DHT22;38173;52.850;6.970;2023-06-10T14:10:49;35.10;40.20
52203;DHT22;38173;52.850;6.970;2023-06-10T14:13:17;35.40;35.90
52203;DHT22;38173;52.850;6.970;2023-06-10T14:15:45;35.50;37.30
52203;DHT22;38173;52.850;6.970;2023-06-10T14:18:15;35.70;37.50
52203;DHT22;38173;52.850;6.970;2023-06-10T14:20:50;35.60;37.50
52203;DHT22;38173;52.850;6.970;2023-06-10T14:23:16;35.90;38.70
52203;DHT22;38173;52.850;6.970;2023-06-10T14:25:45;36.30;39.30
52203;DHT22;38173;52.850;6.970;2023-06-10T14:28:11;36.80;39.70
52203;DHT22;38173;52.850;6.970;2023-06-10T14:30:40;37.00;35.40
52203;DHT22;38173;52.850;6.970;2023-06-10T14:33:07;37.10;34.80
52203;DHT22;38173;52.850;6.970;2023-06-10T14:35:43;37.00;34.30
52203;DHT22;38173;52.850;6.970;2023-06-10T14:38:18;36.30;34.20
52203;DHT22;38173;52.850;6.970;2023-06-10T14:40:48;36.30;37.20
52203;DHT22;38173;52.850;6.970;2023-06-10T14:43:14;36.50;39.70
52203;DHT22;38173;52.850;6.970;2023-06-10T14:45:42;36.70;38.40
52203;DHT22;38173;52.850;6.970;2023-06-10T14:48:08;37.00;36.90
52203;DHT22;38173;52.850;6.970;2023-06-10T14:50:37;37.30;37.40
52203;DHT22;38173;52.850;6.970;2023-06-10T14:53:04;37.70;36.70
52203;DHT22;38173;52.850;6.970;2023-06-10T14:55:33;37.90;36.00
52203;DHT22;38173;52.850;6.970;2023-06-10T14:58:08;37.70;34.80
52203;DHT22;38173;52.850;6.970;2023-06-10T15:00:34;38.00;38.60
52203;DHT22;38173;52.850;6.970;2023-06-10T15:03:00;38.60;38.20
52203;DHT22;38173;52.850;6.970;2023-06-10T15:05:26;38.70;36.00
52203;DHT22;38173;52.850;6.970;2023-06-10T15:07:52;38.60;38.70
52203;DHT22;38173;52.850;6.970;2023-06-10T15:10:21;38.40;38.40
52203;DHT22;38173;52.850;6.970;2023-06-10T15:12:47;38.50;38.60
52203;DHT22;38173;52.850;6.970;2023-06-10T15:15:23;38.50;37.70
52203;DHT22;38173;52.850;6.970;2023-06-10T15:17:53;38.60;38.30
52203;DHT22;38173;52.850;6.970;2023-06-10T15:20:22;38.60;36.20
52203;DHT22;38173;52.850;6.970;2023-06-10T15:22:48;39.00;36.60
52203;DHT22;38173;52.850;6.970;2023-06-10T15:25:15;39.30;33.70
52203;DHT22;38173;52.850;6.970;2023-06-10T15:27:41;39.30;33.80
52203;DHT22;38173;52.850;6.970;2023-06-10T15:30:08;39.50;36.90
52203;DHT22;38173;52.850;6.970;2023-06-10T15:32:34;39.80;36.10
52203;DHT22;38173;52.850;6.970;2023-06-10T15:35:03;39.80;35.40
52203;DHT22;38173;52.850;6.970;2023-06-10T15:37:38;39.80;35.10
52203;DHT22;38173;52.850;6.970;2023-06-10T15:40:05;39.60;34.80
52203;DHT22;38173;52.850;6.970;2023-06-10T15:42:31;39.10;34.70
52203;DHT22;38173;52.850;6.970;2023-06-10T15:44:57;39.30;37.30
52203;DHT22;38173;52.850;6.970;2023-06-10T15:47:40;39.30;34.60
52203;DHT22;38173;52.850;6.970;2023-06-10T15:50:09;39.50;34.70
52203;DHT22;38173;52.850;6.970;2023-06-10T15:52:39;39.60;34.50